メインページ
METAR-TAF:

METAR-TAF

空港 :

カイエンヌ, フランス領ギアナ

カイエンヌ・フェリックス・エブエ国際空港

緯度: 04-50N, 経度: 052-22W, 海抜: 105m

現時点の気象観測

当レポートは24分前の21:00(UTC)に作成
の風 10kt
気温 28°C
湿度 74%
気圧 1010 hPa
視程10km以上

METAR: SOCA 202100Z AUTO 08010KT 9999 NSC 28/23 Q1010 NOSIG

時間: 18:24 (21:24 UTC)

予報

当レポートは4時間24分前の17:00(UTC)に作成
予報は20日の 18時(UTC)から 21日の 18時(UTC)まで有効
の風 12kt
視程10km以上
高度4000ftの雲はほとんどない
21日の 01時(UTC)から 21日の 03時(UTC)まで徐々に
変向風 2kt
21日の 12時(UTC)から 21日の 18時(UTC)まで一時的に
の風 12kt
視程: 3000m
高度1200ftの雲はほとんどない, 塔状積雲.
にわか雨

TAF: SOCA 201700Z 2018/2118 09012KT 9999 FEW040 BECMG 2101/2103 VRB02KT TEMPO 2112/2118 08012KT 3000 SHRA FEW012TCU

4,000以上の空港の気象観測と天気予報(METAR報とTAF報)

利用可能な観測所は地図上に黄色い丸と赤い丸で示す。

丸の上にカーソルを重ねると観測所名を参照できる。

次にクリックすると気象観測と天気予報を参照できる。

マップの切り替え:黒色「×」印の緑ボタンをクリックして拡大、「-」印の緑ボタンをクリックして縮小、緑色の三角印をクリックして隣りの地図に切り替え


METAR-TAF: